Aérodrome :
LOGIN :

S'inscrire | Disclaimer

   EN    FR    IT 

 










Légende :    VFR   VFR Marginal   IFR   IFR Intensif   IFR Très Intensif
Visi : 
Plafond : 
>= 8 km
>= 3000ft
5 à 8 km
1000 à 3000 ft
1500m à 5 km
500 à 1000 ft
800 à 1500m
200 à 500 ft
< 800m
< 200 ft
Symboles :   Orages  Brouillard  Fortes neiges  Fortes précipitations  Vent > 20 kt
SIGMETs :   Divers  Orages  Givrage  Turbulence  Onde Orograph.  Cendres Volcan.







- Altitude de l'aérodrome : 1234 ft
- Code IATA : LUX


ELLX - Luxembourg Findel

DERNIER METAR :
  • 011720Z 19011KT 6000 -RA FEW006 BKN009 BKN012 04/04 Q1003 TEMPO 20015G25KT 4000 RA BR BKN005

METARs EXPIRÉS :
  • 011650Z 19010KT 6000 RA SCT003 BKN005 BKN008 05/04 Q1003 TEMPO 20015G25KT 4000 RA BR BKN005
  • 011620Z 19007KT 7000 -RA SCT005 BKN008 BKN010 05/04 Q1004 TEMPO 20015G25KT 4000 RA BR BKN005
  • 011550Z 20007KT 9999 -RA FEW009 BKN012 BKN016 04/04 Q1004 NOSIG
  • 011520Z 21007KT 9999 -RA FEW009 BKN012 BKN015 04/03 Q1004 TEMPO 24015G25KT 4000 RA BKN012
  • 011450Z 22010KT 9999 -RA FEW009 BKN012 BKN015 05/04 Q1004 RERA TEMPO 24015G25KT 4000 RA BKN012

TAF TAF ELLX
Valide du 01 à 18h jusqu'au 03 à 00h UTC


011700Z 0118/0224 19010KT 9999 BKN010
TEMPO 0118/0120 19015G25KT 4000 RA BKN005
BECMG 0120/0122 25015G25KT 4000 RA BKN005
TEMPO 0120/0123 25017G30KT 3000 +RA SCT003TCU OVC005
BECMG 0123/0202 9999 NSW SCT030
TEMPO 0123/0208 25020G35KT 3000 SHRA SCT015TCU
BECMG 0217/0219 21007KT
TEMPO 0220/0224 5000 BR SCT005
ATIS : +352 4798 27300
Météo : +352 4798 27010 / 27050
Pas de NOTAMs connus pour ce terrain.



MET'MAP, la Météo Aéronautique d'un coup d'oeil ! - Copyright ORBIFLY Décembre 2007 - Disclaimer

ORBIFLY MET'MAP TEAM :

Programmation & Développement : Alexandra Zaïnal
Conception & Développement : Baudouin d'Aumeries
Co-Programmation & Développement : Marc-Olivier Méhu
Soutien technique & logistique : Manuel Goepfert

Contact : metmap@orbifly.com




SOURCES & CREDITS :

   NOAA